createdAt,value
2023-02-02T00:01:11.985Z,1.89
2023-02-02T00:03:39.093Z,1.89
2023-02-02T00:06:05.499Z,2.05
2023-02-02T00:08:31.511Z,2.05
2023-02-02T00:10:57.373Z,1.97
2023-02-02T00:13:23.208Z,1.92
2023-02-02T00:15:49.234Z,1.98
2023-02-02T00:18:15.230Z,2.01
2023-02-02T00:20:41.103Z,2.19
2023-02-02T00:23:06.933Z,2.13
2023-02-02T00:25:32.913Z,1.98
2023-02-02T00:27:58.881Z,2.03
2023-02-02T00:30:24.975Z,2.07
2023-02-02T00:32:52.441Z,2.04
2023-02-02T00:35:18.683Z,1.99
2023-02-02T00:37:44.487Z,2.08
2023-02-02T00:40:11.273Z,2.07
2023-02-02T00:42:37.219Z,2.04
2023-02-02T00:45:16.509Z,2.10
2023-02-02T00:47:44.790Z,2.15
2023-02-02T00:50:14.029Z,2.25
2023-02-02T00:52:39.926Z,2.33
2023-02-02T00:55:06.385Z,2.21
2023-02-02T00:57:32.484Z,2.13
2023-02-02T00:59:58.865Z,2.32
2023-02-02T01:02:24.784Z,2.41
2023-02-02T01:04:51.414Z,2.39
2023-02-02T01:07:17.296Z,2.48
2023-02-02T01:09:43.149Z,2.56
2023-02-02T01:12:09.022Z,2.62
2023-02-02T01:14:34.828Z,2.53
2023-02-02T01:17:00.827Z,2.57
2023-02-02T01:19:26.753Z,2.61
2023-02-02T01:21:52.532Z,2.60
2023-02-02T01:24:18.395Z,2.62
2023-02-02T01:26:44.342Z,2.61
2023-02-02T01:29:10.297Z,2.70
2023-02-02T01:31:37.479Z,2.71
2023-02-02T01:34:03.517Z,2.74
2023-02-02T01:36:29.419Z,2.70
2023-02-02T01:38:55.361Z,2.72
2023-02-02T01:41:23.852Z,2.83
2023-02-02T01:43:56.591Z,2.84
2023-02-02T01:46:25.298Z,2.76
2023-02-02T01:49:14.889Z,2.89
2023-02-02T01:51:55.288Z,2.97
2023-02-02T01:54:31.536Z,2.98
2023-02-02T01:57:02.139Z,3.00
2023-02-02T01:59:30.285Z,3.04
2023-02-02T02:01:57.456Z,2.96
2023-02-02T02:04:25.174Z,3.01
2023-02-02T02:06:52.910Z,2.96
2023-02-02T02:09:19.060Z,3.08
2023-02-02T02:11:45.239Z,3.02
2023-02-02T02:14:31.965Z,2.93
2023-02-02T02:17:03.767Z,2.97
2023-02-02T02:20:19.449Z,3.13
2023-02-02T02:23:25.852Z,3.16
2023-02-02T02:31:23.398Z,3.28
2023-02-02T02:34:17.178Z,3.23
2023-02-02T02:37:11.263Z,3.28
2023-02-02T02:40:07.950Z,3.28
2023-02-02T02:42:39.161Z,3.31
2023-02-02T02:45:08.259Z,3.33
2023-02-02T02:47:35.288Z,3.28
2023-02-02T02:50:01.134Z,3.38
2023-02-02T02:52:27.028Z,3.38
2023-02-02T02:54:54.906Z,3.34
2023-02-02T02:57:39.423Z,3.40
2023-02-02T03:00:27.250Z,3.39
2023-02-02T03:03:05.022Z,3.36
2023-02-02T03:05:48.903Z,3.20
2023-02-02T03:08:31.376Z,3.22
2023-02-02T03:10:59.328Z,3.20
2023-02-02T03:13:26.639Z,3.16
2023-02-02T03:15:52.862Z,3.33
2023-02-02T03:18:22.103Z,3.40
2023-02-02T03:20:47.931Z,3.32
2023-02-02T03:23:13.980Z,3.35
2023-02-02T03:25:40.040Z,3.36
2023-02-02T03:28:06.521Z,3.27
2023-02-02T03:30:33.622Z,3.32
2023-02-02T03:33:00.145Z,3.25
2023-02-02T03:35:26.248Z,3.24
2023-02-02T03:37:52.275Z,3.31
2023-02-02T03:40:18.594Z,3.25
2023-02-02T03:42:44.523Z,3.42
2023-02-02T03:45:10.772Z,3.47
2023-02-02T03:47:36.560Z,3.31
2023-02-02T03:50:02.566Z,3.35
2023-02-02T03:52:28.357Z,3.36
2023-02-02T03:54:54.156Z,3.40
2023-02-02T03:57:19.930Z,3.37
2023-02-02T03:59:45.827Z,3.32
2023-02-02T04:02:11.877Z,3.35
2023-02-02T04:04:37.641Z,3.34
2023-02-02T04:07:03.597Z,3.43
2023-02-02T04:09:29.377Z,3.43
2023-02-02T04:11:55.150Z,3.42
2023-02-02T04:14:20.946Z,3.48
2023-02-02T04:16:46.810Z,3.51
2023-02-02T04:19:13.282Z,3.45
2023-02-02T04:21:39.646Z,3.46
2023-02-02T04:24:06.901Z,3.41
2023-02-02T04:26:32.757Z,3.46
2023-02-02T04:28:58.559Z,3.47
2023-02-02T04:31:24.458Z,3.60
2023-02-02T04:33:50.395Z,3.52
2023-02-02T04:36:16.160Z,3.56
2023-02-02T04:38:41.942Z,3.62
2023-02-02T04:41:09.888Z,3.70
2023-02-02T04:43:36.838Z,3.69
2023-02-02T04:46:03.205Z,3.65
2023-02-02T04:48:29.333Z,3.54
2023-02-02T04:51:03.626Z,3.58
2023-02-02T04:53:29.781Z,3.63
2023-02-02T04:55:55.696Z,3.60
2023-02-02T04:58:22.024Z,3.59
2023-02-02T05:00:47.833Z,3.73
2023-02-02T05:03:13.619Z,3.77
2023-02-02T05:05:39.452Z,3.72
2023-02-02T05:08:07.530Z,3.70
2023-02-02T05:10:33.364Z,3.66
2023-02-02T05:12:59.126Z,3.60
2023-02-02T05:15:25.227Z,3.59
2023-02-02T05:17:51.397Z,3.66
2023-02-02T05:20:17.397Z,3.63
2023-02-02T05:22:43.251Z,3.78
2023-02-02T05:25:09.420Z,3.62
2023-02-02T05:27:35.313Z,3.74
2023-02-02T05:30:01.591Z,3.69
2023-02-02T05:32:29.040Z,3.76
2023-02-02T05:34:55.107Z,3.68
2023-02-02T05:37:21.023Z,3.68
2023-02-02T05:39:47.103Z,3.71
2023-02-02T05:42:17.511Z,3.71
2023-02-02T05:44:44.237Z,3.69
2023-02-02T05:47:10.034Z,3.70
2023-02-02T05:49:35.847Z,3.74
2023-02-02T05:52:01.699Z,3.83
2023-02-02T05:54:27.488Z,3.83
2023-02-02T05:56:55.115Z,3.70
2023-02-02T05:59:21.436Z,3.76
2023-02-02T06:01:48.034Z,3.83
2023-02-02T06:04:14.829Z,3.83
2023-02-02T06:06:41.421Z,3.76
2023-02-02T06:09:07.919Z,3.82
2023-02-02T06:11:34.140Z,3.71
2023-02-02T06:14:00.027Z,3.75
2023-02-02T06:16:26.124Z,3.68
2023-02-02T06:18:51.876Z,3.77
2023-02-02T06:21:19.167Z,3.69
2023-02-02T06:23:45.291Z,3.70
2023-02-02T06:26:12.497Z,3.65
2023-02-02T06:28:38.316Z,3.78
2023-02-02T06:31:06.094Z,3.70
2023-02-02T06:33:32.160Z,3.78
2023-02-02T06:36:00.285Z,3.74
2023-02-02T06:38:26.385Z,3.77
2023-02-02T06:40:52.221Z,3.86
2023-02-02T06:43:18.555Z,3.72
2023-02-02T06:45:44.377Z,3.78
2023-02-02T06:48:10.248Z,3.84
2023-02-02T06:50:39.482Z,3.78
2023-02-02T06:53:05.401Z,3.77
2023-02-02T06:55:31.692Z,3.74
2023-02-02T06:57:58.805Z,3.73
2023-02-02T07:00:25.879Z,3.86
2023-02-02T07:02:51.852Z,3.82
2023-02-02T07:05:23.479Z,3.89
2023-02-02T07:07:50.525Z,3.88
2023-02-02T07:11:13.855Z,3.92
2023-02-02T07:13:06.100Z,3.85
2023-02-02T07:15:33.148Z,3.91
2023-02-02T07:17:59.709Z,3.88
2023-02-02T07:20:26.021Z,3.89
2023-02-02T07:22:51.870Z,3.77
2023-02-02T07:25:17.830Z,3.81
2023-02-02T07:27:43.733Z,3.96
2023-02-02T07:30:10.276Z,3.92
2023-02-02T07:32:36.157Z,3.83
2023-02-02T07:35:01.913Z,3.83
2023-02-02T07:37:27.894Z,3.80
2023-02-02T07:39:53.667Z,3.92
2023-02-02T07:42:19.525Z,3.88
2023-02-02T07:44:45.337Z,3.86
2023-02-02T07:47:11.150Z,3.80
2023-02-02T07:49:37.004Z,3.83
2023-02-02T07:52:02.859Z,3.91
2023-02-02T07:54:28.731Z,3.88
2023-02-02T07:56:54.533Z,3.88
2023-02-02T07:59:20.327Z,3.88
2023-02-02T08:01:46.233Z,3.97
2023-02-02T08:04:12.125Z,3.95
2023-02-02T08:06:39.132Z,3.97
2023-02-02T08:09:09.885Z,3.96
2023-02-02T08:11:37.126Z,3.97
2023-02-02T08:14:03.994Z,3.86
2023-02-02T08:16:32.031Z,3.95
2023-02-02T08:18:58.655Z,3.94
2023-02-02T08:21:24.790Z,3.90
2023-02-02T08:23:51.944Z,3.92
2023-02-02T08:26:21.529Z,3.98
2023-02-02T08:28:51.541Z,3.93
2023-02-02T08:31:23.517Z,3.98
2023-02-02T08:33:50.273Z,4.03
2023-02-02T08:36:18.626Z,4.02
2023-02-02T08:38:45.305Z,4.05
2023-02-02T08:41:13.459Z,4.06
2023-02-02T08:43:40.311Z,3.97
2023-02-02T08:46:08.446Z,4.01
2023-02-02T08:48:35.422Z,4.11
2023-02-02T08:51:02.418Z,4.02
2023-02-02T08:53:28.909Z,3.94
2023-02-02T08:55:58.776Z,4.07
2023-02-02T08:58:24.982Z,3.99
2023-02-02T09:00:50.809Z,4.02
2023-02-02T09:03:16.578Z,4.06
2023-02-02T09:05:43.486Z,4.03
2023-02-02T09:08:09.797Z,4.07
2023-02-02T09:10:36.938Z,4.05
2023-02-02T09:13:03.706Z,4.01
2023-02-02T09:15:30.231Z,4.01
2023-02-02T09:17:56.232Z,4.14
2023-02-02T09:20:22.208Z,4.04
2023-02-02T09:22:48.169Z,4.07
2023-02-02T09:25:14.294Z,4.08
2023-02-02T09:27:40.799Z,4.02
2023-02-02T09:30:08.436Z,4.02
2023-02-02T09:32:34.436Z,4.14
2023-02-02T09:35:00.284Z,3.99
2023-02-02T09:37:26.910Z,4.09
2023-02-02T09:39:52.933Z,4.17
2023-02-02T09:42:30.800Z,4.15
2023-02-02T09:45:02.461Z,4.08
2023-02-02T09:48:00.566Z,4.06
2023-02-02T09:50:49.819Z,4.08
2023-02-02T09:53:18.521Z,4.11
2023-02-02T09:55:47.873Z,4.15
2023-02-02T09:58:24.387Z,4.25
2023-02-02T10:01:15.587Z,4.25
2023-02-02T10:04:05.898Z,4.29
2023-02-02T10:06:40.049Z,4.33
2023-02-02T10:09:46.708Z,4.29
2023-02-02T10:12:40.722Z,4.31
2023-02-02T10:15:23.661Z,4.34
2023-02-02T10:17:52.440Z,4.37
2023-02-02T10:20:36.857Z,4.40
2023-02-02T10:23:15.331Z,4.37
2023-02-02T10:25:53.708Z,4.35
2023-02-02T10:28:19.973Z,4.29
2023-02-02T10:30:53.481Z,4.28
2023-02-02T10:33:39.033Z,4.36
2023-02-02T10:36:10.948Z,4.27
2023-02-02T10:39:07.983Z,4.24
2023-02-02T10:42:18.990Z,4.35
2023-02-02T10:44:55.876Z,4.25
2023-02-02T10:47:31.517Z,4.24
2023-02-02T10:50:13.067Z,4.19
2023-02-02T10:53:04.910Z,4.27
2023-02-02T10:55:35.997Z,4.33
2023-02-02T10:58:10.983Z,4.32
2023-02-02T11:00:58.125Z,4.39
2023-02-02T11:03:28.870Z,4.37
2023-02-02T11:06:16.311Z,4.34
2023-02-02T11:08:44.112Z,4.30
2023-02-02T11:11:44.536Z,4.17
2023-02-02T11:14:18.117Z,4.25
2023-02-02T11:16:45.194Z,4.29
2023-02-02T11:19:16.809Z,4.34
2023-02-02T11:21:57.467Z,4.48
2023-02-02T11:24:27.850Z,4.35
2023-02-02T11:27:03.883Z,4.39
2023-02-02T11:29:38.711Z,4.29
2023-02-02T11:32:37.322Z,4.41
2023-02-02T11:35:03.088Z,4.38
2023-02-02T11:37:34.506Z,4.39
2023-02-02T11:40:23.622Z,4.44
2023-02-02T11:42:51.350Z,4.38
2023-02-02T11:45:25.155Z,4.42
2023-02-02T11:47:51.226Z,4.41
2023-02-02T11:50:26.173Z,4.39
2023-02-02T11:52:52.497Z,4.36
2023-02-02T11:55:27.382Z,4.47
2023-02-02T11:58:14.731Z,4.38
2023-02-02T12:00:54.996Z,4.34
2023-02-02T12:03:38.340Z,4.32
2023-02-02T12:06:25.472Z,4.39
2023-02-02T12:09:03.055Z,4.29
2023-02-02T12:11:53.423Z,4.28
2023-02-02T12:14:21.971Z,4.24
2023-02-02T12:16:58.417Z,4.28
2023-02-02T12:19:48.175Z,4.32
2023-02-02T12:22:38.064Z,4.34
2023-02-02T12:25:22.156Z,4.29
2023-02-02T12:27:59.153Z,4.23
2023-02-02T12:30:40.200Z,4.22
2023-02-02T12:33:35.370Z,4.24
2023-02-02T12:36:14.178Z,4.15
2023-02-02T12:39:01.940Z,4.21
2023-02-02T12:41:31.895Z,4.35
2023-02-02T12:44:25.906Z,4.27
2023-02-02T12:47:13.746Z,4.24
2023-02-02T12:49:48.688Z,4.22
2023-02-02T12:52:33.055Z,4.27
2023-02-02T12:55:27.153Z,4.33
2023-02-02T12:58:19.992Z,4.41
2023-02-02T13:01:31.124Z,4.25
2023-02-02T13:04:12.935Z,4.17
2023-02-02T13:06:55.644Z,4.23
2023-02-02T13:09:58.960Z,4.29
2023-02-02T13:12:27.862Z,4.26
2023-02-02T13:14:58.552Z,4.29
2023-02-02T13:17:38.931Z,4.26
2023-02-02T13:20:23.315Z,4.38
2023-02-02T13:22:54.381Z,4.30
2023-02-02T13:25:48.525Z,4.32
2023-02-02T13:28:41.699Z,4.22
2023-02-02T13:31:36.055Z,4.35
2023-02-02T13:34:25.110Z,4.43
2023-02-02T13:37:01.246Z,4.38
2023-02-02T13:39:34.360Z,4.37
2023-02-02T13:42:02.177Z,4.35
2023-02-02T13:44:36.988Z,4.35
2023-02-02T13:47:10.624Z,4.35
2023-02-02T13:49:43.544Z,4.39
2023-02-02T13:52:24.629Z,4.39
2023-02-02T13:55:00.049Z,4.40
2023-02-02T13:57:37.457Z,4.38
2023-02-02T14:00:30.082Z,4.35
2023-02-02T14:02:58.841Z,4.42
2023-02-02T14:05:37.396Z,4.40
2023-02-02T14:08:19.007Z,4.38
2023-02-02T14:10:58.187Z,4.35
2023-02-02T14:13:47.080Z,4.45
2023-02-02T14:16:36.149Z,4.50
2023-02-02T14:19:04.413Z,4.45
2023-02-02T14:21:33.255Z,4.40
2023-02-02T14:24:12.150Z,4.46
2023-02-02T14:26:45.340Z,4.55
2023-02-02T14:29:32.826Z,4.60
2023-02-02T14:32:01.259Z,4.50
2023-02-02T14:34:41.256Z,4.51
2023-02-02T14:37:22.083Z,4.48
2023-02-02T14:40:17.193Z,4.49
2023-02-02T14:43:13.993Z,4.50
2023-02-02T14:45:44.024Z,4.57
2023-02-02T14:48:13.342Z,4.50
2023-02-02T14:50:39.840Z,4.48
2023-02-02T14:53:12.384Z,4.51
2023-02-02T14:55:50.955Z,4.50
2023-02-02T14:58:33.512Z,4.46
2023-02-02T15:01:06.929Z,4.43
2023-02-02T15:03:35.796Z,4.57
2023-02-02T15:06:04.946Z,4.46
2023-02-02T15:08:30.875Z,4.57
2023-02-02T15:11:23.848Z,4.52
2023-02-02T15:14:06.445Z,4.50
2023-02-02T15:16:34.964Z,4.46
2023-02-02T15:19:12.522Z,4.51
2023-02-02T15:21:40.247Z,4.51
2023-02-02T15:24:18.162Z,4.49
2023-02-02T15:26:45.869Z,4.46
2023-02-02T15:29:44.125Z,4.45
2023-02-02T15:32:16.798Z,4.45
2023-02-02T15:34:50.295Z,4.68
2023-02-02T15:37:22.450Z,4.52
2023-02-02T15:39:55.177Z,4.56
2023-02-02T15:42:52.499Z,4.61
2023-02-02T15:45:27.270Z,4.49
2023-02-02T15:47:55.235Z,4.57
2023-02-02T15:50:26.241Z,4.63
2023-02-02T15:52:53.920Z,4.52
2023-02-02T15:55:21.515Z,4.46
2023-02-02T15:57:47.546Z,4.55
2023-02-02T16:00:34.176Z,4.53
2023-02-02T16:03:10.231Z,4.58
2023-02-02T16:05:36.011Z,4.51
2023-02-02T16:08:06.586Z,4.50
2023-02-02T16:10:34.459Z,4.52
2023-02-02T16:13:01.192Z,4.60
2023-02-02T16:15:28.743Z,4.46
2023-02-02T16:17:59.791Z,4.54
2023-02-02T16:20:27.993Z,4.45
2023-02-02T16:23:00.987Z,4.43
2023-02-02T16:25:29.899Z,4.58
2023-02-02T16:27:59.763Z,4.53
2023-02-02T16:30:28.663Z,4.60
2023-02-02T16:32:54.753Z,4.59
2023-02-02T16:35:40.171Z,4.46
2023-02-02T16:38:14.811Z,4.54
2023-02-02T16:40:41.475Z,4.42
2023-02-02T16:43:20.274Z,4.45
2023-02-02T16:45:59.786Z,4.48
2023-02-02T16:48:33.605Z,4.55
2023-02-02T16:51:32.194Z,4.49
2023-02-02T16:54:05.421Z,4.39
2023-02-02T16:56:38.326Z,4.43
2023-02-02T16:59:26.946Z,4.47
2023-02-02T17:02:02.700Z,4.49
2023-02-02T17:04:31.622Z,4.48
2023-02-02T17:07:09.497Z,4.53
2023-02-02T17:09:40.282Z,4.43
2023-02-02T17:12:33.262Z,4.57
2023-02-02T17:15:19.961Z,4.55
2023-02-02T17:17:47.900Z,4.54
2023-02-02T17:20:15.028Z,4.56
2023-02-02T17:22:43.984Z,4.60
2023-02-02T17:25:16.517Z,4.49
2023-02-02T17:27:43.862Z,4.49
2023-02-02T17:30:14.876Z,4.56
2023-02-02T17:32:41.267Z,4.51
2023-02-02T17:35:14.819Z,4.54
2023-02-02T17:37:40.637Z,4.52
2023-02-02T17:40:08.648Z,4.58
2023-02-02T17:42:34.807Z,4.56
2023-02-02T17:45:00.848Z,4.49
2023-02-02T17:47:26.979Z,4.56
2023-02-02T17:49:53.046Z,4.51
2023-02-02T17:52:19.219Z,4.59
2023-02-02T17:54:45.138Z,4.60
2023-02-02T17:57:11.031Z,4.56
2023-02-02T17:59:36.817Z,4.60
2023-02-02T18:02:03.345Z,4.62
2023-02-02T18:04:29.359Z,4.63
2023-02-02T18:06:55.236Z,4.67
2023-02-02T18:09:21.162Z,4.61
2023-02-02T18:11:49.119Z,4.68
2023-02-02T18:14:15.415Z,4.75
2023-02-02T18:16:41.314Z,4.66
2023-02-02T18:19:07.322Z,4.72
2023-02-02T18:21:33.317Z,4.69
2023-02-02T18:23:59.606Z,4.72
2023-02-02T18:26:26.496Z,4.69
2023-02-02T18:28:52.752Z,4.66
2023-02-02T18:31:23.074Z,4.68
2023-02-02T18:33:49.576Z,4.73
2023-02-02T18:36:19.371Z,4.77
2023-02-02T18:38:46.814Z,4.72
2023-02-02T18:41:13.995Z,4.65
2023-02-02T18:43:40.045Z,4.70
2023-02-02T18:46:09.672Z,4.66
2023-02-02T18:48:36.455Z,4.69
2023-02-02T18:51:07.231Z,4.68
2023-02-02T18:53:34.147Z,4.73
2023-02-02T18:56:07.078Z,4.67
2023-02-02T18:58:34.598Z,4.73
2023-02-02T19:01:14.617Z,4.71
2023-02-02T19:03:41.419Z,4.78
2023-02-02T19:06:27.740Z,4.63
2023-02-02T19:08:54.129Z,4.67
2023-02-02T19:11:22.470Z,4.76
2023-02-02T19:13:49.859Z,4.75
2023-02-02T19:16:25.463Z,4.81
2023-02-02T19:18:51.227Z,4.82
2023-02-02T19:21:17.134Z,4.80
2023-02-02T19:23:45.333Z,4.75
2023-02-02T19:26:20.299Z,4.81
2023-02-02T19:28:46.345Z,4.76
2023-02-02T19:31:13.864Z,4.76
2023-02-02T19:33:46.103Z,4.74
2023-02-02T19:36:15.013Z,4.76
2023-02-02T19:38:41.059Z,4.84
2023-02-02T19:41:35.544Z,4.75
2023-02-02T19:44:10.048Z,4.82
2023-02-02T19:46:42.925Z,4.80
2023-02-02T19:49:17.480Z,4.91
2023-02-02T19:51:51.895Z,4.88
2023-02-02T19:54:27.162Z,4.90
2023-02-02T19:56:56.441Z,4.93
2023-02-02T19:59:24.907Z,4.85
2023-02-02T20:01:51.967Z,4.97
2023-02-02T20:04:19.503Z,4.98
2023-02-02T20:06:58.447Z,4.97
2023-02-02T20:09:33.556Z,4.92
2023-02-02T20:11:59.915Z,4.91
2023-02-02T20:14:29.508Z,4.99
2023-02-02T20:17:07.000Z,4.96
2023-02-02T20:19:39.272Z,4.99
2023-02-02T20:22:24.543Z,4.97
2023-02-02T20:24:51.262Z,5.03
2023-02-02T20:27:27.762Z,4.99
2023-02-02T20:30:14.988Z,4.95
2023-02-02T20:32:41.758Z,5.08
2023-02-02T20:35:24.579Z,5.02
2023-02-02T20:37:51.068Z,5.13
2023-02-02T20:40:22.046Z,5.10
2023-02-02T20:42:48.622Z,5.07
2023-02-02T20:45:18.677Z,5.08
2023-02-02T20:47:45.303Z,5.17
2023-02-02T20:50:14.032Z,5.09
2023-02-02T20:52:40.185Z,5.04
2023-02-02T20:55:07.013Z,5.08
2023-02-02T20:57:33.713Z,5.10
2023-02-02T20:59:59.823Z,5.00
2023-02-02T21:02:26.617Z,5.03
2023-02-02T21:04:53.557Z,5.04
2023-02-02T21:07:21.042Z,4.99
2023-02-02T21:09:48.812Z,5.06
2023-02-02T21:12:15.371Z,5.02
2023-02-02T21:14:41.340Z,5.08
2023-02-02T21:17:14.818Z,5.04
2023-02-02T21:19:42.414Z,5.06
2023-02-02T21:22:08.452Z,5.13
2023-02-02T21:24:34.292Z,5.07
2023-02-02T21:27:01.364Z,5.15
2023-02-02T21:29:30.510Z,5.00
2023-02-02T21:31:58.821Z,5.05
2023-02-02T21:34:25.498Z,5.07
2023-02-02T21:36:56.044Z,4.97
2023-02-02T21:39:34.820Z,5.04
2023-02-02T21:42:06.290Z,5.03
2023-02-02T21:44:32.938Z,5.09
2023-02-02T21:47:00.568Z,5.16
2023-02-02T21:49:35.534Z,5.18
2023-02-02T21:52:13.128Z,5.05
2023-02-02T21:54:39.778Z,5.07
2023-02-02T21:57:20.544Z,5.11
2023-02-02T21:59:52.458Z,5.15
2023-02-02T22:02:37.287Z,5.06
2023-02-02T22:05:17.269Z,5.11
2023-02-02T22:07:46.945Z,5.07
2023-02-02T22:10:42.360Z,5.05
2023-02-02T22:13:19.644Z,5.10
2023-02-02T22:15:46.943Z,5.02
2023-02-02T22:18:20.953Z,4.99
2023-02-02T22:20:49.897Z,5.04
2023-02-02T22:23:21.018Z,5.15
2023-02-02T22:25:48.993Z,5.04
2023-02-02T22:28:27.107Z,5.02
2023-02-02T22:30:54.814Z,5.02
2023-02-02T22:33:22.701Z,5.16
2023-02-02T22:35:49.112Z,5.08
2023-02-02T22:38:19.842Z,5.13
2023-02-02T22:40:46.870Z,5.15
2023-02-02T22:43:15.447Z,5.02
2023-02-02T22:45:42.655Z,5.08
2023-02-02T22:48:08.810Z,5.02
2023-02-02T22:50:35.229Z,5.13
2023-02-02T22:53:02.770Z,5.08
2023-02-02T22:55:29.058Z,5.02
2023-02-02T22:57:54.835Z,4.94
2023-02-02T23:00:24.284Z,4.98
2023-02-02T23:02:51.447Z,4.97
2023-02-02T23:05:18.887Z,4.98
2023-02-02T23:07:45.867Z,4.96
2023-02-02T23:10:14.232Z,5.00
2023-02-02T23:12:41.173Z,4.97
2023-02-02T23:15:07.516Z,5.05
2023-02-02T23:17:34.623Z,5.05
2023-02-02T23:20:06.280Z,5.20
2023-02-02T23:22:32.298Z,4.97
2023-02-02T23:24:58.608Z,5.09
2023-02-02T23:27:25.142Z,5.05
2023-02-02T23:29:50.984Z,5.07
2023-02-02T23:32:16.807Z,5.13
2023-02-02T23:34:42.727Z,5.16
2023-02-02T23:37:08.513Z,5.13
2023-02-02T23:39:34.294Z,5.02
2023-02-02T23:42:00.190Z,5.03
2023-02-02T23:44:26.070Z,4.99
2023-02-02T23:46:52.531Z,5.01
2023-02-02T23:49:18.864Z,5.04
2023-02-02T23:51:45.166Z,5.06
2023-02-02T23:54:12.233Z,4.98
2023-02-02T23:56:39.422Z,4.92
2023-02-02T23:59:05.295Z,4.89
